Terminal Aerodrome Forecast
Issued by NWS North Platte, NE

Home | Current Version | Previous Version | Text Only | Print | Product List | Glossary Off
Versions: 1 2 3 4 5 6 7 8 9 10 11 12 13 14 15 16 17 18 19 20 21

193
FTUS43 KLBF 171120
TAFVTN
TAF
KVTN 171120Z 1712/1812 13013G19KT P6SM SCT200
     FM172200 11015G23KT P6SM BKN060
     FM172300 08012KT P6SM VCSH BKN050
     FM180100 06010KT 6SM -RA OVC025
     FM180200 02011KT 4SM -RA OVC015
     FM180300 01013G20KT 5SM -RASN OVC015
     FM180500 33014G21KT 5SM -SN OVC008
     FM180700 32014G22KT P6SM OVC010=

USA.gov is the U.S. government's official web portal to all federal, state and local government web resources and services.